sensor_id;sensor_type;location;lat;lon;timestamp;P1;durP1;ratioP1;P2;durP2;ratioP2
78443;SDS011;67739;52.986;8.894;2023-02-12T00:02:24;4.88;;;0.90;;
78443;SDS011;67739;52.986;8.894;2023-02-12T00:04:49;5.03;;;0.90;;
78443;SDS011;67739;52.986;8.894;2023-02-12T00:07:14;5.63;;;1.23;;
78443;SDS011;67739;52.986;8.894;2023-02-12T00:09:40;4.28;;;0.70;;
78443;SDS011;67739;52.986;8.894;2023-02-12T00:12:05;2.55;;;0.50;;
78443;SDS011;67739;52.986;8.894;2023-02-12T00:14:31;3.88;;;0.57;;
78443;SDS011;67739;52.986;8.894;2023-02-12T00:16:56;3.63;;;0.50;;
78443;SDS011;67739;52.986;8.894;2023-02-12T00:19:21;4.60;;;0.55;;
78443;SDS011;67739;52.986;8.894;2023-02-12T00:21:48;5.05;;;0.60;;
78443;SDS011;67739;52.986;8.894;2023-02-12T00:24:13;3.25;;;0.55;;
78443;SDS011;67739;52.986;8.894;2023-02-12T00:26:38;3.78;;;0.70;;
78443;SDS011;67739;52.986;8.894;2023-02-12T00:29:04;4.18;;;0.57;;
78443;SDS011;67739;52.986;8.894;2023-02-12T00:31:29;6.28;;;0.73;;
78443;SDS011;67739;52.986;8.894;2023-02-12T00:33:56;4.75;;;1.00;;
78443;SDS011;67739;52.986;8.894;2023-02-12T00:36:24;4.32;;;0.93;;
78443;SDS011;67739;52.986;8.894;2023-02-12T00:38:51;3.17;;;0.55;;
78443;SDS011;67739;52.986;8.894;2023-02-12T00:41:17;4.20;;;0.55;;
78443;SDS011;67739;52.986;8.894;2023-02-12T00:43:42;5.35;;;0.93;;
78443;SDS011;67739;52.986;8.894;2023-02-12T00:46:07;3.88;;;0.63;;
78443;SDS011;67739;52.986;8.894;2023-02-12T00:48:34;5.00;;;0.43;;
78443;SDS011;67739;52.986;8.894;2023-02-12T00:50:59;4.43;;;0.75;;
78443;SDS011;67739;52.986;8.894;2023-02-12T00:53:25;4.78;;;0.77;;
78443;SDS011;67739;52.986;8.894;2023-02-12T00:55:50;3.08;;;0.85;;
78443;SDS011;67739;52.986;8.894;2023-02-12T00:58:16;4.63;;;0.57;;
78443;SDS011;67739;52.986;8.894;2023-02-12T01:00:42;2.60;;;0.60;;
78443;SDS011;67739;52.986;8.894;2023-02-12T01:03:07;3.40;;;0.47;;
78443;SDS011;67739;52.986;8.894;2023-02-12T01:05:33;4.57;;;0.52;;
78443;SDS011;67739;52.986;8.894;2023-02-12T01:07:58;3.72;;;0.52;;
78443;SDS011;67739;52.986;8.894;2023-02-12T01:10:24;4.25;;;0.52;;
78443;SDS011;67739;52.986;8.894;2023-02-12T01:12:49;4.93;;;0.57;;
78443;SDS011;67739;52.986;8.894;2023-02-12T01:15:15;3.35;;;0.52;;
78443;SDS011;67739;52.986;8.894;2023-02-12T01:17:41;2.72;;;0.77;;
78443;SDS011;67739;52.986;8.894;2023-02-12T01:20:07;4.15;;;0.77;;
78443;SDS011;67739;52.986;8.894;2023-02-12T01:22:35;1.92;;;0.30;;
78443;SDS011;67739;52.986;8.894;2023-02-12T01:25:01;3.80;;;0.80;;
78443;SDS011;67739;52.986;8.894;2023-02-12T01:27:27;4.25;;;0.60;;
78443;SDS011;67739;52.986;8.894;2023-02-12T01:29:52;5.45;;;0.47;;
78443;SDS011;67739;52.986;8.894;2023-02-12T01:32:17;3.25;;;0.50;;
78443;SDS011;67739;52.986;8.894;2023-02-12T01:34:43;3.20;;;0.40;;
78443;SDS011;67739;52.986;8.894;2023-02-12T01:37:08;3.55;;;0.60;;
78443;SDS011;67739;52.986;8.894;2023-02-12T01:39:34;3.95;;;1.08;;
78443;SDS011;67739;52.986;8.894;2023-02-12T01:42:00;4.53;;;0.60;;
78443;SDS011;67739;52.986;8.894;2023-02-12T01:44:29;4.20;;;0.82;;
78443;SDS011;67739;52.986;8.894;2023-02-12T01:46:59;6.88;;;0.55;;
78443;SDS011;67739;52.986;8.894;2023-02-12T01:49:31;4.38;;;0.77;;
78443;SDS011;67739;52.986;8.894;2023-02-12T01:52:04;4.10;;;0.68;;
78443;SDS011;67739;52.986;8.894;2023-02-12T01:54:34;3.10;;;0.50;;
78443;SDS011;67739;52.986;8.894;2023-02-12T01:57:01;4.03;;;0.50;;
78443;SDS011;67739;52.986;8.894;2023-02-12T01:59:27;4.28;;;0.60;;
78443;SDS011;67739;52.986;8.894;2023-02-12T02:01:53;3.60;;;0.73;;
78443;SDS011;67739;52.986;8.894;2023-02-12T02:04:20;3.83;;;0.85;;
78443;SDS011;67739;52.986;8.894;2023-02-12T02:07:08;2.05;;;0.30;;
78443;SDS011;67739;52.986;8.894;2023-02-12T02:09:34;3.20;;;0.50;;
78443;SDS011;67739;52.986;8.894;2023-02-12T02:12:00;3.25;;;0.50;;
78443;SDS011;67739;52.986;8.894;2023-02-12T02:14:44;3.78;;;0.50;;
78443;SDS011;67739;52.986;8.894;2023-02-12T02:31:15;3.95;;;0.57;;
78443;SDS011;67739;52.986;8.894;2023-02-12T02:33:52;3.78;;;0.52;;
78443;SDS011;67739;52.986;8.894;2023-02-12T02:44:13;3.65;;;0.55;;
78443;SDS011;67739;52.986;8.894;2023-02-12T02:49:09;2.55;;;0.50;;
78443;SDS011;67739;52.986;8.894;2023-02-12T02:51:39;5.15;;;0.95;;
78443;SDS011;67739;52.986;8.894;2023-02-12T02:54:08;4.57;;;0.63;;
78443;SDS011;67739;52.986;8.894;2023-02-12T02:56:40;2.45;;;0.60;;
78443;SDS011;67739;52.986;8.894;2023-02-12T02:59:10;4.50;;;0.63;;
78443;SDS011;67739;52.986;8.894;2023-02-12T03:01:39;3.13;;;0.60;;
78443;SDS011;67739;52.986;8.894;2023-02-12T03:04:12;2.90;;;0.40;;
78443;SDS011;67739;52.986;8.894;2023-02-12T03:06:52;2.33;;;0.50;;
78443;SDS011;67739;52.986;8.894;2023-02-12T03:09:21;3.90;;;0.50;;
78443;SDS011;67739;52.986;8.894;2023-02-12T03:11:49;1.70;;;0.30;;
78443;SDS011;67739;52.986;8.894;2023-02-12T03:14:26;2.35;;;0.35;;
78443;SDS011;67739;52.986;8.894;2023-02-12T03:16:56;2.72;;;0.47;;
78443;SDS011;67739;52.986;8.894;2023-02-12T03:19:24;2.72;;;0.50;;
78443;SDS011;67739;52.986;8.894;2023-02-12T03:24:23;3.00;;;0.60;;
78443;SDS011;67739;52.986;8.894;2023-02-12T03:26:58;3.45;;;0.70;;
78443;SDS011;67739;52.986;8.894;2023-02-12T03:29:29;1.48;;;0.30;;
78443;SDS011;67739;52.986;8.894;2023-02-12T03:37:13;2.90;;;0.82;;
78443;SDS011;67739;52.986;8.894;2023-02-12T03:45:17;2.20;;;0.40;;
78443;SDS011;67739;52.986;8.894;2023-02-12T03:53:28;3.20;;;0.68;;
78443;SDS011;67739;52.986;8.894;2023-02-12T03:56:17;2.58;;;0.43;;
78443;SDS011;67739;52.986;8.894;2023-02-12T03:58:42;2.25;;;0.40;;
78443;SDS011;67739;52.986;8.894;2023-02-12T04:01:09;2.40;;;0.28;;
78443;SDS011;67739;52.986;8.894;2023-02-12T04:03:35;2.40;;;0.32;;
78443;SDS011;67739;52.986;8.894;2023-02-12T04:06:00;3.80;;;0.50;;
78443;SDS011;67739;52.986;8.894;2023-02-12T04:08:26;4.13;;;0.50;;
78443;SDS011;67739;52.986;8.894;2023-02-12T04:13:37;3.65;;;0.43;;
78443;SDS011;67739;52.986;8.894;2023-02-12T04:16:16;2.65;;;0.55;;
78443;SDS011;67739;52.986;8.894;2023-02-12T04:18:46;4.03;;;0.50;;
78443;SDS011;67739;52.986;8.894;2023-02-12T04:26:33;2.33;;;0.60;;
78443;SDS011;67739;52.986;8.894;2023-02-12T04:29:13;2.58;;;0.30;;
78443;SDS011;67739;52.986;8.894;2023-02-12T04:31:51;2.78;;;0.63;;
78443;SDS011;67739;52.986;8.894;2023-02-12T04:39:42;2.20;;;0.32;;
78443;SDS011;67739;52.986;8.894;2023-02-12T04:42:08;3.45;;;0.25;;
78443;SDS011;67739;52.986;8.894;2023-02-12T04:44:36;3.33;;;0.50;;
78443;SDS011;67739;52.986;8.894;2023-02-12T04:47:02;4.65;;;0.35;;
78443;SDS011;67739;52.986;8.894;2023-02-12T04:49:28;3.85;;;0.35;;
78443;SDS011;67739;52.986;8.894;2023-02-12T04:51:53;2.13;;;0.60;;
78443;SDS011;67739;52.986;8.894;2023-02-12T04:54:19;4.22;;;0.60;;
78443;SDS011;67739;52.986;8.894;2023-02-12T04:56:45;3.28;;;0.50;;
78443;SDS011;67739;52.986;8.894;2023-02-12T04:59:11;3.05;;;0.40;;
78443;SDS011;67739;52.986;8.894;2023-02-12T05:01:37;3.22;;;0.77;;
78443;SDS011;67739;52.986;8.894;2023-02-12T05:04:03;2.05;;;0.40;;
78443;SDS011;67739;52.986;8.894;2023-02-12T05:06:29;2.15;;;0.40;;
78443;SDS011;67739;52.986;8.894;2023-02-12T05:08:55;2.83;;;0.30;;
78443;SDS011;67739;52.986;8.894;2023-02-12T05:11:21;2.70;;;0.40;;
78443;SDS011;67739;52.986;8.894;2023-02-12T05:13:49;3.50;;;0.40;;
78443;SDS011;67739;52.986;8.894;2023-02-12T05:16:15;4.18;;;0.40;;
78443;SDS011;67739;52.986;8.894;2023-02-12T05:18:41;4.07;;;0.50;;
78443;SDS011;67739;52.986;8.894;2023-02-12T05:21:06;2.67;;;0.43;;
78443;SDS011;67739;52.986;8.894;2023-02-12T05:23:32;3.03;;;0.30;;
78443;SDS011;67739;52.986;8.894;2023-02-12T05:26:03;4.30;;;0.60;;
78443;SDS011;67739;52.986;8.894;2023-02-12T05:28:30;3.95;;;0.40;;
78443;SDS011;67739;52.986;8.894;2023-02-12T05:31:07;3.80;;;0.45;;
78443;SDS011;67739;52.986;8.894;2023-02-12T05:33:33;3.75;;;0.40;;
78443;SDS011;67739;52.986;8.894;2023-02-12T05:36:05;3.03;;;0.32;;
78443;SDS011;67739;52.986;8.894;2023-02-12T05:38:32;3.33;;;0.40;;
78443;SDS011;67739;52.986;8.894;2023-02-12T05:41:05;2.63;;;0.40;;
78443;SDS011;67739;52.986;8.894;2023-02-12T05:43:32;2.90;;;0.40;;
78443;SDS011;67739;52.986;8.894;2023-02-12T05:46:01;3.10;;;0.68;;
78443;SDS011;67739;52.986;8.894;2023-02-12T05:48:27;3.95;;;0.50;;
78443;SDS011;67739;52.986;8.894;2023-02-12T05:50:53;5.43;;;0.50;;
78443;SDS011;67739;52.986;8.894;2023-02-12T05:53:19;4.13;;;0.80;;
78443;SDS011;67739;52.986;8.894;2023-02-12T05:55:44;3.22;;;0.43;;
78443;SDS011;67739;52.986;8.894;2023-02-12T05:58:09;2.97;;;0.63;;
78443;SDS011;67739;52.986;8.894;2023-02-12T06:00:35;2.60;;;0.40;;
78443;SDS011;67739;52.986;8.894;2023-02-12T06:03:00;4.25;;;0.57;;
78443;SDS011;67739;52.986;8.894;2023-02-12T06:05:25;4.93;;;1.10;;
78443;SDS011;67739;52.986;8.894;2023-02-12T06:07:51;2.65;;;0.65;;
78443;SDS011;67739;52.986;8.894;2023-02-12T06:10:16;4.88;;;0.50;;
78443;SDS011;67739;52.986;8.894;2023-02-12T06:12:42;2.97;;;0.40;;
78443;SDS011;67739;52.986;8.894;2023-02-12T06:15:07;3.53;;;0.43;;
78443;SDS011;67739;52.986;8.894;2023-02-12T06:17:33;4.90;;;0.47;;
78443;SDS011;67739;52.986;8.894;2023-02-12T06:19:58;3.50;;;0.40;;
78443;SDS011;67739;52.986;8.894;2023-02-12T06:22:23;2.92;;;0.95;;
78443;SDS011;67739;52.986;8.894;2023-02-12T06:24:49;3.08;;;0.38;;
78443;SDS011;67739;52.986;8.894;2023-02-12T06:27:14;3.60;;;0.80;;
78443;SDS011;67739;52.986;8.894;2023-02-12T06:29:39;2.63;;;0.60;;
78443;SDS011;67739;52.986;8.894;2023-02-12T06:32:05;5.85;;;0.68;;
78443;SDS011;67739;52.986;8.894;2023-02-12T06:34:32;3.00;;;0.70;;
78443;SDS011;67739;52.986;8.894;2023-02-12T06:36:58;3.08;;;0.40;;
78443;SDS011;67739;52.986;8.894;2023-02-12T06:39:23;6.43;;;0.70;;
78443;SDS011;67739;52.986;8.894;2023-02-12T06:41:48;4.30;;;0.60;;
78443;SDS011;67739;52.986;8.894;2023-02-12T06:44:14;5.13;;;0.60;;
78443;SDS011;67739;52.986;8.894;2023-02-12T06:46:39;6.45;;;1.25;;
78443;SDS011;67739;52.986;8.894;2023-02-12T06:49:04;2.55;;;0.40;;
78443;SDS011;67739;52.986;8.894;2023-02-12T06:51:30;5.10;;;0.63;;
78443;SDS011;67739;52.986;8.894;2023-02-12T06:53:56;4.47;;;0.80;;
78443;SDS011;67739;52.986;8.894;2023-02-12T06:56:22;6.55;;;1.15;;
78443;SDS011;67739;52.986;8.894;2023-02-12T06:58:52;6.95;;;0.98;;
78443;SDS011;67739;52.986;8.894;2023-02-12T07:01:19;3.58;;;0.60;;
78443;SDS011;67739;52.986;8.894;2023-02-12T07:03:47;2.83;;;0.77;;
78443;SDS011;67739;52.986;8.894;2023-02-12T07:06:14;6.65;;;1.50;;
78443;SDS011;67739;52.986;8.894;2023-02-12T07:08:40;5.68;;;1.20;;
78443;SDS011;67739;52.986;8.894;2023-02-12T07:11:05;4.78;;;1.15;;
78443;SDS011;67739;52.986;8.894;2023-02-12T07:13:31;5.43;;;0.85;;
78443;SDS011;67739;52.986;8.894;2023-02-12T07:16:01;4.55;;;0.80;;
78443;SDS011;67739;52.986;8.894;2023-02-12T07:18:32;5.22;;;1.20;;
78443;SDS011;67739;52.986;8.894;2023-02-12T07:20:58;5.95;;;0.90;;
78443;SDS011;67739;52.986;8.894;2023-02-12T07:23:23;8.30;;;1.00;;
78443;SDS011;67739;52.986;8.894;2023-02-12T07:25:55;4.75;;;0.73;;
78443;SDS011;67739;52.986;8.894;2023-02-12T07:28:22;6.20;;;1.02;;
78443;SDS011;67739;52.986;8.894;2023-02-12T07:30:47;6.03;;;2.00;;
78443;SDS011;67739;52.986;8.894;2023-02-12T07:33:12;5.38;;;1.40;;
78443;SDS011;67739;52.986;8.894;2023-02-12T07:35:38;5.93;;;1.50;;
78443;SDS011;67739;52.986;8.894;2023-02-12T07:38:03;7.50;;;1.67;;
78443;SDS011;67739;52.986;8.894;2023-02-12T07:40:28;10.43;;;2.05;;
78443;SDS011;67739;52.986;8.894;2023-02-12T07:42:54;7.90;;;1.58;;
78443;SDS011;67739;52.986;8.894;2023-02-12T07:45:20;8.20;;;1.30;;
78443;SDS011;67739;52.986;8.894;2023-02-12T07:47:45;5.78;;;1.58;;
78443;SDS011;67739;52.986;8.894;2023-02-12T07:50:11;8.27;;;1.58;;
78443;SDS011;67739;52.986;8.894;2023-02-12T07:52:36;13.00;;;2.15;;
78443;SDS011;67739;52.986;8.894;2023-02-12T07:55:01;11.45;;;1.98;;
78443;SDS011;67739;52.986;8.894;2023-02-12T07:57:27;14.20;;;2.85;;
78443;SDS011;67739;52.986;8.894;2023-02-12T07:59:52;15.27;;;2.80;;
78443;SDS011;67739;52.986;8.894;2023-02-12T08:02:18;11.98;;;2.47;;
78443;SDS011;67739;52.986;8.894;2023-02-12T08:04:43;9.40;;;2.17;;
78443;SDS011;67739;52.986;8.894;2023-02-12T08:07:08;21.33;;;8.20;;
78443;SDS011;67739;52.986;8.894;2023-02-12T08:09:34;44.25;;;14.57;;
78443;SDS011;67739;52.986;8.894;2023-02-12T08:11:59;41.80;;;15.85;;
78443;SDS011;67739;52.986;8.894;2023-02-12T08:14:25;45.10;;;14.27;;
78443;SDS011;67739;52.986;8.894;2023-02-12T08:16:50;47.85;;;16.42;;
78443;SDS011;67739;52.986;8.894;2023-02-12T08:19:16;51.17;;;14.77;;
78443;SDS011;67739;52.986;8.894;2023-02-12T08:21:42;39.95;;;12.93;;
78443;SDS011;67739;52.986;8.894;2023-02-12T08:24:08;37.35;;;11.68;;
78443;SDS011;67739;52.986;8.894;2023-02-12T08:26:35;34.95;;;10.70;;
78443;SDS011;67739;52.986;8.894;2023-02-12T08:29:07;31.75;;;11.15;;
78443;SDS011;67739;52.986;8.894;2023-02-12T08:31:38;32.67;;;11.27;;
78443;SDS011;67739;52.986;8.894;2023-02-12T08:34:05;29.48;;;10.77;;
78443;SDS011;67739;52.986;8.894;2023-02-12T08:36:35;43.25;;;9.73;;
78443;SDS011;67739;52.986;8.894;2023-02-12T08:39:02;31.65;;;10.27;;
78443;SDS011;67739;52.986;8.894;2023-02-12T08:41:28;28.33;;;9.07;;
78443;SDS011;67739;52.986;8.894;2023-02-12T08:43:55;22.00;;;8.20;;
78443;SDS011;67739;52.986;8.894;2023-02-12T08:46:23;30.27;;;8.25;;
78443;SDS011;67739;52.986;8.894;2023-02-12T08:48:53;30.13;;;8.18;;
78443;SDS011;67739;52.986;8.894;2023-02-12T08:51:22;24.50;;;7.72;;
78443;SDS011;67739;52.986;8.894;2023-02-12T08:53:51;27.17;;;9.85;;
78443;SDS011;67739;52.986;8.894;2023-02-12T08:56:19;32.22;;;16.30;;
78443;SDS011;67739;52.986;8.894;2023-02-12T08:58:44;22.00;;;7.88;;
78443;SDS011;67739;52.986;8.894;2023-02-12T09:01:11;20.55;;;6.07;;
78443;SDS011;67739;52.986;8.894;2023-02-12T09:03:40;11.57;;;4.78;;
78443;SDS011;67739;52.986;8.894;2023-02-12T09:06:06;12.05;;;4.18;;
78443;SDS011;67739;52.986;8.894;2023-02-12T09:08:32;13.05;;;3.53;;
78443;SDS011;67739;52.986;8.894;2023-02-12T09:10:57;12.75;;;3.58;;
78443;SDS011;67739;52.986;8.894;2023-02-12T09:13:23;12.85;;;4.38;;
78443;SDS011;67739;52.986;8.894;2023-02-12T09:15:49;11.13;;;2.92;;
78443;SDS011;67739;52.986;8.894;2023-02-12T09:18:14;10.50;;;2.97;;
78443;SDS011;67739;52.986;8.894;2023-02-12T09:20:41;8.05;;;2.13;;
78443;SDS011;67739;52.986;8.894;2023-02-12T09:23:09;8.85;;;2.55;;
78443;SDS011;67739;52.986;8.894;2023-02-12T09:25:43;10.43;;;2.28;;
78443;SDS011;67739;52.986;8.894;2023-02-12T09:28:10;10.68;;;2.45;;
78443;SDS011;67739;52.986;8.894;2023-02-12T09:30:37;8.27;;;2.35;;
78443;SDS011;67739;52.986;8.894;2023-02-12T09:33:03;13.57;;;2.97;;
78443;SDS011;67739;52.986;8.894;2023-02-12T09:35:29;9.73;;;1.95;;
78443;SDS011;67739;52.986;8.894;2023-02-12T09:37:54;6.30;;;1.70;;
78443;SDS011;67739;52.986;8.894;2023-02-12T09:40:21;7.28;;;1.50;;
78443;SDS011;67739;52.986;8.894;2023-02-12T09:45:36;6.65;;;1.35;;
78443;SDS011;67739;52.986;8.894;2023-02-12T09:50:53;5.75;;;1.30;;
78443;SDS011;67739;52.986;8.894;2023-02-12T09:53:22;12.98;;;5.90;;
78443;SDS011;67739;52.986;8.894;2023-02-12T09:55:52;11.50;;;3.90;;
78443;SDS011;67739;52.986;8.894;2023-02-12T09:58:40;10.27;;;2.80;;
78443;SDS011;67739;52.986;8.894;2023-02-12T10:01:17;11.93;;;3.33;;
78443;SDS011;67739;52.986;8.894;2023-02-12T10:03:44;41.65;;;10.00;;
78443;SDS011;67739;52.986;8.894;2023-02-12T10:06:17;36.58;;;7.88;;
78443;SDS011;67739;52.986;8.894;2023-02-12T10:08:57;30.55;;;8.00;;
78443;SDS011;67739;52.986;8.894;2023-02-12T10:11:36;24.73;;;4.97;;
78443;SDS011;67739;52.986;8.894;2023-02-12T10:25:39;15.30;;;3.15;;
78443;SDS011;67739;52.986;8.894;2023-02-12T10:28:16;19.25;;;4.07;;
78443;SDS011;67739;52.986;8.894;2023-02-12T10:31:29;12.55;;;3.47;;
78443;SDS011;67739;52.986;8.894;2023-02-12T10:33:45;17.15;;;5.93;;
78443;SDS011;67739;52.986;8.894;2023-02-12T10:38:51;19.55;;;2.97;;
78443;SDS011;67739;52.986;8.894;2023-02-12T10:41:25;15.00;;;4.15;;
78443;SDS011;67739;52.986;8.894;2023-02-12T10:43:54;14.88;;;4.28;;
78443;SDS011;67739;52.986;8.894;2023-02-12T10:46:19;10.18;;;2.97;;
78443;SDS011;67739;52.986;8.894;2023-02-12T10:48:45;7.78;;;2.20;;
78443;SDS011;67739;52.986;8.894;2023-02-12T10:57:20;9.23;;;2.28;;
78443;SDS011;67739;52.986;8.894;2023-02-12T10:59:51;8.70;;;1.77;;
78443;SDS011;67739;52.986;8.894;2023-02-12T11:04:51;8.80;;;2.10;;
78443;SDS011;67739;52.986;8.894;2023-02-12T11:07:18;9.20;;;2.15;;
78443;SDS011;67739;52.986;8.894;2023-02-12T11:09:45;8.30;;;1.75;;
78443;SDS011;67739;52.986;8.894;2023-02-12T11:14:53;10.43;;;2.33;;
78443;SDS011;67739;52.986;8.894;2023-02-12T11:17:25;8.55;;;2.15;;
78443;SDS011;67739;52.986;8.894;2023-02-12T11:20:03;13.02;;;4.18;;
78443;SDS011;67739;52.986;8.894;2023-02-12T11:22:34;7.82;;;1.55;;
78443;SDS011;67739;52.986;8.894;2023-02-12T11:25:00;7.40;;;2.10;;
78443;SDS011;67739;52.986;8.894;2023-02-12T11:27:32;5.97;;;1.42;;
78443;SDS011;67739;52.986;8.894;2023-02-12T11:30:30;6.90;;;1.85;;
78443;SDS011;67739;52.986;8.894;2023-02-12T11:32:49;42.22;;;13.25;;
78443;SDS011;67739;52.986;8.894;2023-02-12T11:35:17;29.42;;;10.18;;
78443;SDS011;67739;52.986;8.894;2023-02-12T11:37:59;38.30;;;10.25;;
78443;SDS011;67739;52.986;8.894;2023-02-12T11:40:27;46.53;;;14.93;;
78443;SDS011;67739;52.986;8.894;2023-02-12T11:43:01;83.88;;;28.08;;
78443;SDS011;67739;52.986;8.894;2023-02-12T11:45:33;103.53;;;32.67;;
78443;SDS011;67739;52.986;8.894;2023-02-12T11:48:19;113.03;;;36.53;;
78443;SDS011;67739;52.986;8.894;2023-02-12T11:50:46;99.18;;;34.65;;
78443;SDS011;67739;52.986;8.894;2023-02-12T11:53:18;80.72;;;29.20;;
78443;SDS011;67739;52.986;8.894;2023-02-12T11:56:00;84.45;;;26.85;;
78443;SDS011;67739;52.986;8.894;2023-02-12T11:58:32;82.10;;;25.75;;
78443;SDS011;67739;52.986;8.894;2023-02-12T12:01:02;68.13;;;22.90;;
78443;SDS011;67739;52.986;8.894;2023-02-12T12:03:34;80.93;;;26.10;;
78443;SDS011;67739;52.986;8.894;2023-02-12T12:06:20;76.90;;;23.48;;
78443;SDS011;67739;52.986;8.894;2023-02-12T12:18:08;140.00;;;51.65;;
78443;SDS011;67739;52.986;8.894;2023-02-12T12:20:48;126.43;;;43.13;;
78443;SDS011;67739;52.986;8.894;2023-02-12T12:23:21;108.63;;;37.22;;
78443;SDS011;67739;52.986;8.894;2023-02-12T12:26:00;101.55;;;34.97;;
78443;SDS011;67739;52.986;8.894;2023-02-12T12:31:09;86.93;;;28.40;;
78443;SDS011;67739;52.986;8.894;2023-02-12T12:42:10;52.50;;;19.67;;
78443;SDS011;67739;52.986;8.894;2023-02-12T12:50:03;38.47;;;14.75;;
78443;SDS011;67739;52.986;8.894;2023-02-12T13:03:18;20.80;;;6.72;;
78443;SDS011;67739;52.986;8.894;2023-02-12T13:06:04;21.45;;;6.15;;
78443;SDS011;67739;52.986;8.894;2023-02-12T13:08:56;19.50;;;5.68;;
78443;SDS011;67739;52.986;8.894;2023-02-12T13:11:54;15.85;;;5.18;;
78443;SDS011;67739;52.986;8.894;2023-02-12T13:14:46;16.20;;;4.00;;
78443;SDS011;67739;52.986;8.894;2023-02-12T13:17:21;13.82;;;3.65;;
78443;SDS011;67739;52.986;8.894;2023-02-12T13:22:29;14.43;;;3.40;;
78443;SDS011;67739;52.986;8.894;2023-02-12T13:27:55;22.77;;;5.63;;
78443;SDS011;67739;52.986;8.894;2023-02-12T13:30:33;15.52;;;4.88;;
78443;SDS011;67739;52.986;8.894;2023-02-12T13:33:15;19.17;;;6.47;;
78443;SDS011;67739;52.986;8.894;2023-02-12T13:35:45;20.67;;;4.45;;
78443;SDS011;67739;52.986;8.894;2023-02-12T13:38:23;18.25;;;4.20;;
78443;SDS011;67739;52.986;8.894;2023-02-12T13:40:53;14.98;;;4.38;;
78443;SDS011;67739;52.986;8.894;2023-02-12T13:46:07;13.65;;;3.00;;
78443;SDS011;67739;52.986;8.894;2023-02-12T13:48:52;17.10;;;4.22;;
78443;SDS011;67739;52.986;8.894;2023-02-12T13:51:52;11.27;;;3.67;;
78443;SDS011;67739;52.986;8.894;2023-02-12T13:54:39;12.45;;;3.25;;
78443;SDS011;67739;52.986;8.894;2023-02-12T13:57:20;11.23;;;3.72;;
78443;SDS011;67739;52.986;8.894;2023-02-12T13:59:47;14.13;;;4.07;;
78443;SDS011;67739;52.986;8.894;2023-02-12T14:07:10;11.45;;;3.45;;
78443;SDS011;67739;52.986;8.894;2023-02-12T14:09:39;13.80;;;3.35;;
78443;SDS011;67739;52.986;8.894;2023-02-12T14:12:09;12.40;;;3.20;;
78443;SDS011;67739;52.986;8.894;2023-02-12T14:14:39;15.85;;;2.97;;
78443;SDS011;67739;52.986;8.894;2023-02-12T14:27:52;8.63;;;2.25;;
78443;SDS011;67739;52.986;8.894;2023-02-12T14:30:34;6.82;;;1.83;;
78443;SDS011;67739;52.986;8.894;2023-02-12T14:35:37;6.53;;;1.33;;
78443;SDS011;67739;52.986;8.894;2023-02-12T14:40:44;8.48;;;1.55;;
78443;SDS011;67739;52.986;8.894;2023-02-12T14:43:24;9.45;;;1.45;;
78443;SDS011;67739;52.986;8.894;2023-02-12T14:48:59;8.10;;;1.27;;
78443;SDS011;67739;52.986;8.894;2023-02-12T14:54:04;8.32;;;1.27;;
78443;SDS011;67739;52.986;8.894;2023-02-12T14:56:58;8.90;;;1.77;;
78443;SDS011;67739;52.986;8.894;2023-02-12T14:59:25;7.00;;;1.45;;
78443;SDS011;67739;52.986;8.894;2023-02-12T15:01:56;6.72;;;1.50;;
78443;SDS011;67739;52.986;8.894;2023-02-12T15:04:27;8.02;;;1.30;;
78443;SDS011;67739;52.986;8.894;2023-02-12T15:06:57;7.70;;;1.20;;
78443;SDS011;67739;52.986;8.894;2023-02-12T15:09:33;10.98;;;1.33;;
78443;SDS011;67739;52.986;8.894;2023-02-12T15:12:24;5.32;;;1.00;;
78443;SDS011;67739;52.986;8.894;2023-02-12T15:17:57;7.63;;;1.13;;
78443;SDS011;67739;52.986;8.894;2023-02-12T15:20:33;4.60;;;1.17;;
78443;SDS011;67739;52.986;8.894;2023-02-12T15:23:27;6.35;;;1.00;;
78443;SDS011;67739;52.986;8.894;2023-02-12T15:26:12;6.90;;;0.85;;
78443;SDS011;67739;52.986;8.894;2023-02-12T15:28:40;8.27;;;0.90;;
78443;SDS011;67739;52.986;8.894;2023-02-12T15:31:06;9.50;;;1.70;;
78443;SDS011;67739;52.986;8.894;2023-02-12T15:33:35;8.63;;;2.17;;
78443;SDS011;67739;52.986;8.894;2023-02-12T15:36:05;10.48;;;2.72;;
78443;SDS011;67739;52.986;8.894;2023-02-12T15:38:35;9.48;;;2.28;;
78443;SDS011;67739;52.986;8.894;2023-02-12T15:41:22;11.95;;;2.13;;
78443;SDS011;67739;52.986;8.894;2023-02-12T15:43:54;7.35;;;1.52;;
78443;SDS011;67739;52.986;8.894;2023-02-12T15:46:20;11.63;;;2.00;;
78443;SDS011;67739;52.986;8.894;2023-02-12T15:48:45;6.88;;;1.65;;
78443;SDS011;67739;52.986;8.894;2023-02-12T15:51:32;8.90;;;1.73;;
78443;SDS011;67739;52.986;8.894;2023-02-12T15:53:59;5.53;;;1.38;;
78443;SDS011;67739;52.986;8.894;2023-02-12T15:56:29;7.45;;;1.20;;
78443;SDS011;67739;52.986;8.894;2023-02-12T15:58:58;8.32;;;1.10;;
78443;SDS011;67739;52.986;8.894;2023-02-12T16:01:32;7.22;;;1.08;;
78443;SDS011;67739;52.986;8.894;2023-02-12T16:04:07;5.50;;;1.15;;
78443;SDS011;67739;52.986;8.894;2023-02-12T16:06:35;4.30;;;0.70;;
78443;SDS011;67739;52.986;8.894;2023-02-12T16:09:02;5.35;;;1.20;;
78443;SDS011;67739;52.986;8.894;2023-02-12T16:11:30;6.47;;;0.82;;
78443;SDS011;67739;52.986;8.894;2023-02-12T16:13:58;4.03;;;0.60;;
78443;SDS011;67739;52.986;8.894;2023-02-12T16:16:34;4.43;;;0.75;;
78443;SDS011;67739;52.986;8.894;2023-02-12T16:21:48;3.97;;;0.30;;
78443;SDS011;67739;52.986;8.894;2023-02-12T16:24:26;4.80;;;0.57;;
78443;SDS011;67739;52.986;8.894;2023-02-12T16:27:03;4.55;;;0.70;;
78443;SDS011;67739;52.986;8.894;2023-02-12T16:29:34;3.78;;;0.63;;
78443;SDS011;67739;52.986;8.894;2023-02-12T16:32:02;4.10;;;0.55;;
78443;SDS011;67739;52.986;8.894;2023-02-12T16:34:29;3.40;;;0.40;;
78443;SDS011;67739;52.986;8.894;2023-02-12T16:36:57;9.82;;;0.65;;
78443;SDS011;67739;52.986;8.894;2023-02-12T16:42:19;3.22;;;0.60;;
78443;SDS011;67739;52.986;8.894;2023-02-12T16:47:19;7.57;;;1.07;;
78443;SDS011;67739;52.986;8.894;2023-02-12T16:49:56;8.45;;;0.85;;
78443;SDS011;67739;52.986;8.894;2023-02-12T16:55:02;3.90;;;0.52;;
78443;SDS011;67739;52.986;8.894;2023-02-12T16:57:27;6.85;;;0.75;;
78443;SDS011;67739;52.986;8.894;2023-02-12T16:59:53;3.28;;;0.47;;
78443;SDS011;67739;52.986;8.894;2023-02-12T17:02:18;4.57;;;0.88;;
78443;SDS011;67739;52.986;8.894;2023-02-12T17:04:43;4.50;;;1.02;;
78443;SDS011;67739;52.986;8.894;2023-02-12T17:07:14;4.28;;;0.80;;
78443;SDS011;67739;52.986;8.894;2023-02-12T17:09:43;5.38;;;0.93;;
78443;SDS011;67739;52.986;8.894;2023-02-12T17:12:09;5.15;;;0.77;;
78443;SDS011;67739;52.986;8.894;2023-02-12T17:14:34;4.30;;;0.90;;
78443;SDS011;67739;52.986;8.894;2023-02-12T17:16:59;6.28;;;1.02;;
78443;SDS011;67739;52.986;8.894;2023-02-12T17:19:25;3.72;;;0.50;;
78443;SDS011;67739;52.986;8.894;2023-02-12T17:21:50;5.40;;;0.98;;
78443;SDS011;67739;52.986;8.894;2023-02-12T17:24:20;3.97;;;0.60;;
78443;SDS011;67739;52.986;8.894;2023-02-12T17:26:52;3.97;;;0.73;;
78443;SDS011;67739;52.986;8.894;2023-02-12T17:29:19;6.80;;;0.63;;
78443;SDS011;67739;52.986;8.894;2023-02-12T17:31:46;3.55;;;0.50;;
78443;SDS011;67739;52.986;8.894;2023-02-12T17:34:13;3.55;;;0.57;;
78443;SDS011;67739;52.986;8.894;2023-02-12T17:36:39;4.20;;;0.52;;
78443;SDS011;67739;52.986;8.894;2023-02-12T17:39:05;3.60;;;0.55;;
78443;SDS011;67739;52.986;8.894;2023-02-12T17:41:32;3.40;;;0.50;;
78443;SDS011;67739;52.986;8.894;2023-02-12T17:43:57;176.38;;;46.55;;
78443;SDS011;67739;52.986;8.894;2023-02-12T17:46:23;37.17;;;13.10;;
78443;SDS011;67739;52.986;8.894;2023-02-12T17:48:50;22.65;;;6.43;;
78443;SDS011;67739;52.986;8.894;2023-02-12T17:51:16;18.77;;;4.45;;